Maraba Paulista, Brazil
Current Conditions -  °F | °C
As of 10:00 PM on Wednesday 17 Dec 2014 (Local Time) from SBDN Reporting Station
Thunderstorm Thunderstorm  
Wind Chill: 81°   Ceiling: Unl
Heat Index: 82°   Visibility: 6mi
Dew Point: 64°   Wind: 8mph
Humidity: 58%   Direction: 160°SSE
Pressure: 29.85"   Gusts: NA
Location:  22.11°S, 51.96°W
Report Text: SBDN 180000Z 16007KT 9999 VCTS FEW055CB 27/18 Q1011
Loading
Personal Weather Stations






























Interactive Weather Map New forecast layout! Learn more

10-Day Weather Forecast

Advertisements
Track Severe Weather on mobile